sensor_id;sensor_type;location;lat;lon;timestamp;temperature;humidity
57576;DHT22;43412;-33.800;150.804;2022-08-05T00:01:02;19.10;99.90
57576;DHT22;43412;-33.800;150.804;2022-08-05T00:03:36;18.80;99.90
57576;DHT22;43412;-33.800;150.804;2022-08-05T00:06:04;19.20;99.90
57576;DHT22;43412;-33.800;150.804;2022-08-05T00:08:32;19.30;99.90
57576;DHT22;43412;-33.800;150.804;2022-08-05T00:11:01;19.30;99.90
57576;DHT22;43412;-33.800;150.804;2022-08-05T00:13:31;19.20;99.90
57576;DHT22;43412;-33.800;150.804;2022-08-05T00:15:58;19.10;99.90
57576;DHT22;43412;-33.800;150.804;2022-08-05T00:18:26;18.90;99.90
57576;DHT22;43412;-33.800;150.804;2022-08-05T00:20:53;18.90;99.90
57576;DHT22;43412;-33.800;150.804;2022-08-05T00:23:24;18.90;99.90
57576;DHT22;43412;-33.800;150.804;2022-08-05T00:25:51;18.90;99.90
57576;DHT22;43412;-33.800;150.804;2022-08-05T00:28:19;18.90;99.90
57576;DHT22;43412;-33.800;150.804;2022-08-05T00:30:46;18.90;99.90
57576;DHT22;43412;-33.800;150.804;2022-08-05T00:33:15;18.90;99.90
57576;DHT22;43412;-33.800;150.804;2022-08-05T00:35:43;18.80;99.90
57576;DHT22;43412;-33.800;150.804;2022-08-05T00:38:11;18.80;99.90
57576;DHT22;43412;-33.800;150.804;2022-08-05T00:40:50;18.70;99.90
57576;DHT22;43412;-33.800;150.804;2022-08-05T00:43:18;18.70;99.90
57576;DHT22;43412;-33.800;150.804;2022-08-05T00:45:46;18.80;99.90
57576;DHT22;43412;-33.800;150.804;2022-08-05T00:48:15;18.70;99.90
57576;DHT22;43412;-33.800;150.804;2022-08-05T00:50:45;18.80;99.90
57576;DHT22;43412;-33.800;150.804;2022-08-05T00:53:14;18.90;99.90
57576;DHT22;43412;-33.800;150.804;2022-08-05T00:55:42;19.10;99.90
57576;DHT22;43412;-33.800;150.804;2022-08-05T00:58:11;19.30;99.90
57576;DHT22;43412;-33.800;150.804;2022-08-05T01:00:39;19.50;99.90
57576;DHT22;43412;-33.800;150.804;2022-08-05T01:03:07;19.70;99.90
57576;DHT22;43412;-33.800;150.804;2022-08-05T01:05:35;19.80;99.90
57576;DHT22;43412;-33.800;150.804;2022-08-05T01:08:03;19.70;99.90
57576;DHT22;43412;-33.800;150.804;2022-08-05T01:10:37;20.30;99.90
57576;DHT22;43412;-33.800;150.804;2022-08-05T01:13:54;21.00;99.90
57576;DHT22;43412;-33.800;150.804;2022-08-05T01:16:03;22.10;99.90
57576;DHT22;43412;-33.800;150.804;2022-08-05T01:18:37;23.10;98.70
57576;DHT22;43412;-33.800;150.804;2022-08-05T01:21:11;23.10;97.40
57576;DHT22;43412;-33.800;150.804;2022-08-05T01:26:44;24.10;96.80
57576;DHT22;43412;-33.800;150.804;2022-08-05T01:29:40;24.60;95.10
57576;DHT22;43412;-33.800;150.804;2022-08-05T01:32:10;25.40;95.20
57576;DHT22;43412;-33.800;150.804;2022-08-05T01:34:44;25.60;93.70
57576;DHT22;43412;-33.800;150.804;2022-08-05T01:40:08;26.10;92.70
57576;DHT22;43412;-33.800;150.804;2022-08-05T01:42:38;26.50;91.70
57576;DHT22;43412;-33.800;150.804;2022-08-05T01:45:08;26.70;91.60
57576;DHT22;43412;-33.800;150.804;2022-08-05T01:47:36;26.80;91.30
57576;DHT22;43412;-33.800;150.804;2022-08-05T01:50:07;26.90;91.10
57576;DHT22;43412;-33.800;150.804;2022-08-05T01:52:37;26.70;91.10
57576;DHT22;43412;-33.800;150.804;2022-08-05T01:55:08;26.90;91.70
57576;DHT22;43412;-33.800;150.804;2022-08-05T01:57:43;27.50;89.80
57576;DHT22;43412;-33.800;150.804;2022-08-05T02:00:13;27.40;88.90
57576;DHT22;43412;-33.800;150.804;2022-08-05T02:02:53;27.50;88.40
57576;DHT22;43412;-33.800;150.804;2022-08-05T02:05:29;27.70;86.10
57576;DHT22;43412;-33.800;150.804;2022-08-05T02:08:01;27.90;86.30
57576;DHT22;43412;-33.800;150.804;2022-08-05T02:10:37;27.90;86.00
57576;DHT22;43412;-33.800;150.804;2022-08-05T02:13:18;27.70;86.20
57576;DHT22;43412;-33.800;150.804;2022-08-05T02:15:49;27.50;85.00
57576;DHT22;43412;-33.800;150.804;2022-08-05T02:18:35;27.20;85.10
57576;DHT22;43412;-33.800;150.804;2022-08-05T02:21:12;27.00;87.30
57576;DHT22;43412;-33.800;150.804;2022-08-05T02:23:43;26.60;87.20
57576;DHT22;43412;-33.800;150.804;2022-08-05T02:26:15;26.00;88.00
57576;DHT22;43412;-33.800;150.804;2022-08-05T02:28:45;26.30;87.80
57576;DHT22;43412;-33.800;150.804;2022-08-05T02:31:25;26.60;86.40
57576;DHT22;43412;-33.800;150.804;2022-08-05T02:34:06;25.80;85.00
57576;DHT22;43412;-33.800;150.804;2022-08-05T02:36:38;25.50;86.30
57576;DHT22;43412;-33.800;150.804;2022-08-05T02:39:07;25.40;90.00
57576;DHT22;43412;-33.800;150.804;2022-08-05T02:41:39;25.20;89.30
57576;DHT22;43412;-33.800;150.804;2022-08-05T02:44:07;24.50;88.60
57576;DHT22;43412;-33.800;150.804;2022-08-05T02:46:38;23.80;90.40
57576;DHT22;43412;-33.800;150.804;2022-08-05T02:49:07;23.50;91.90
57576;DHT22;43412;-33.800;150.804;2022-08-05T02:51:36;23.20;92.00
57576;DHT22;43412;-33.800;150.804;2022-08-05T02:54:05;22.90;91.10
57576;DHT22;43412;-33.800;150.804;2022-08-05T02:56:34;22.60;91.80
57576;DHT22;43412;-33.800;150.804;2022-08-05T02:59:03;22.20;92.50
57576;DHT22;43412;-33.800;150.804;2022-08-05T03:01:33;22.00;92.90
57576;DHT22;43412;-33.800;150.804;2022-08-05T03:04:03;21.80;93.00
57576;DHT22;43412;-33.800;150.804;2022-08-05T03:06:31;22.00;93.20
57576;DHT22;43412;-33.800;150.804;2022-08-05T03:08:59;22.00;92.60
57576;DHT22;43412;-33.800;150.804;2022-08-05T03:11:27;22.50;91.80
57576;DHT22;43412;-33.800;150.804;2022-08-05T03:13:54;23.20;91.00
57576;DHT22;43412;-33.800;150.804;2022-08-05T03:16:22;23.10;91.30
57576;DHT22;43412;-33.800;150.804;2022-08-05T03:18:49;22.80;92.00
57576;DHT22;43412;-33.800;150.804;2022-08-05T03:21:17;22.40;92.20
57576;DHT22;43412;-33.800;150.804;2022-08-05T03:23:44;22.00;92.20
57576;DHT22;43412;-33.800;150.804;2022-08-05T03:26:12;22.00;92.50
57576;DHT22;43412;-33.800;150.804;2022-08-05T03:28:40;21.80;92.90
57576;DHT22;43412;-33.800;150.804;2022-08-05T03:31:07;22.00;93.10
57576;DHT22;43412;-33.800;150.804;2022-08-05T03:33:35;22.50;92.50
57576;DHT22;43412;-33.800;150.804;2022-08-05T03:36:03;22.40;87.60
57576;DHT22;43412;-33.800;150.804;2022-08-05T03:38:31;22.50;90.40
57576;DHT22;43412;-33.800;150.804;2022-08-05T03:40:58;22.40;87.80
57576;DHT22;43412;-33.800;150.804;2022-08-05T03:43:26;22.60;88.00
57576;DHT22;43412;-33.800;150.804;2022-08-05T03:45:53;22.90;84.60
57576;DHT22;43412;-33.800;150.804;2022-08-05T03:48:21;23.20;81.90
57576;DHT22;43412;-33.800;150.804;2022-08-05T03:51:04;23.20;79.80
57576;DHT22;43412;-33.800;150.804;2022-08-05T03:53:38;23.10;79.10
57576;DHT22;43412;-33.800;150.804;2022-08-05T03:56:10;22.90;80.40
57576;DHT22;43412;-33.800;150.804;2022-08-05T03:58:39;22.80;82.10
57576;DHT22;43412;-33.800;150.804;2022-08-05T04:01:09;22.60;80.00
57576;DHT22;43412;-33.800;150.804;2022-08-05T04:03:47;22.70;80.20
57576;DHT22;43412;-33.800;150.804;2022-08-05T04:06:17;22.70;80.20
57576;DHT22;43412;-33.800;150.804;2022-08-05T04:08:45;22.80;79.90
57576;DHT22;43412;-33.800;150.804;2022-08-05T04:11:13;22.80;80.20
57576;DHT22;43412;-33.800;150.804;2022-08-05T04:13:41;22.70;79.20
57576;DHT22;43412;-33.800;150.804;2022-08-05T04:16:10;22.70;79.40
57576;DHT22;43412;-33.800;150.804;2022-08-05T04:18:39;22.70;79.60
57576;DHT22;43412;-33.800;150.804;2022-08-05T04:21:07;22.60;79.10
57576;DHT22;43412;-33.800;150.804;2022-08-05T04:23:35;22.50;79.10
57576;DHT22;43412;-33.800;150.804;2022-08-05T04:26:02;22.30;78.90
57576;DHT22;43412;-33.800;150.804;2022-08-05T04:28:30;22.20;78.70
57576;DHT22;43412;-33.800;150.804;2022-08-05T04:30:58;22.20;79.40
57576;DHT22;43412;-33.800;150.804;2022-08-05T04:33:26;22.20;80.10
57576;DHT22;43412;-33.800;150.804;2022-08-05T04:35:54;22.20;80.10
57576;DHT22;43412;-33.800;150.804;2022-08-05T04:38:22;22.20;79.50
57576;DHT22;43412;-33.800;150.804;2022-08-05T04:40:50;22.20;80.00
57576;DHT22;43412;-33.800;150.804;2022-08-05T04:43:17;22.20;79.70
57576;DHT22;43412;-33.800;150.804;2022-08-05T04:45:44;22.20;79.50
57576;DHT22;43412;-33.800;150.804;2022-08-05T04:48:13;22.20;78.20
57576;DHT22;43412;-33.800;150.804;2022-08-05T04:50:46;22.10;78.20
57576;DHT22;43412;-33.800;150.804;2022-08-05T04:53:16;22.00;79.20
57576;DHT22;43412;-33.800;150.804;2022-08-05T04:55:45;22.00;79.40
57576;DHT22;43412;-33.800;150.804;2022-08-05T04:58:15;21.90;79.10
57576;DHT22;43412;-33.800;150.804;2022-08-05T05:00:43;21.80;79.30
57576;DHT22;43412;-33.800;150.804;2022-08-05T05:03:10;21.80;79.30
57576;DHT22;43412;-33.800;150.804;2022-08-05T05:05:38;21.90;79.00
57576;DHT22;43412;-33.800;150.804;2022-08-05T05:08:09;21.90;78.40
57576;DHT22;43412;-33.800;150.804;2022-08-05T05:10:41;21.90;79.50
57576;DHT22;43412;-33.800;150.804;2022-08-05T05:13:15;21.90;78.10
57576;DHT22;43412;-33.800;150.804;2022-08-05T05:15:44;21.80;78.70
57576;DHT22;43412;-33.800;150.804;2022-08-05T05:18:15;21.80;78.60
57576;DHT22;43412;-33.800;150.804;2022-08-05T05:20:44;21.80;78.20
57576;DHT22;43412;-33.800;150.804;2022-08-05T05:23:12;21.80;79.30
57576;DHT22;43412;-33.800;150.804;2022-08-05T05:25:44;21.80;79.60
57576;DHT22;43412;-33.800;150.804;2022-08-05T05:28:12;21.80;78.50
57576;DHT22;43412;-33.800;150.804;2022-08-05T05:30:40;21.80;78.00
57576;DHT22;43412;-33.800;150.804;2022-08-05T05:33:08;21.80;79.10
57576;DHT22;43412;-33.800;150.804;2022-08-05T05:35:35;21.80;77.80
57576;DHT22;43412;-33.800;150.804;2022-08-05T05:38:03;21.90;77.60
57576;DHT22;43412;-33.800;150.804;2022-08-05T05:40:32;21.80;77.50
57576;DHT22;43412;-33.800;150.804;2022-08-05T05:43:00;21.90;76.70
57576;DHT22;43412;-33.800;150.804;2022-08-05T05:45:28;21.90;76.60
57576;DHT22;43412;-33.800;150.804;2022-08-05T05:47:59;21.90;76.90
57576;DHT22;43412;-33.800;150.804;2022-08-05T05:50:27;21.90;76.30
57576;DHT22;43412;-33.800;150.804;2022-08-05T05:52:54;21.90;76.90
57576;DHT22;43412;-33.800;150.804;2022-08-05T05:55:22;21.90;77.80
57576;DHT22;43412;-33.800;150.804;2022-08-05T05:57:49;21.90;76.30
57576;DHT22;43412;-33.800;150.804;2022-08-05T06:00:19;21.90;77.00
57576;DHT22;43412;-33.800;150.804;2022-08-05T06:02:47;22.00;78.10
57576;DHT22;43412;-33.800;150.804;2022-08-05T06:05:15;22.00;77.30
57576;DHT22;43412;-33.800;150.804;2022-08-05T06:07:45;22.00;76.70
57576;DHT22;43412;-33.800;150.804;2022-08-05T06:10:12;22.10;76.80
57576;DHT22;43412;-33.800;150.804;2022-08-05T06:12:40;22.00;76.50
57576;DHT22;43412;-33.800;150.804;2022-08-05T06:15:08;22.00;77.20
57576;DHT22;43412;-33.800;150.804;2022-08-05T06:17:35;21.90;76.60
57576;DHT22;43412;-33.800;150.804;2022-08-05T06:20:06;21.90;76.80
57576;DHT22;43412;-33.800;150.804;2022-08-05T06:22:34;21.80;76.60
57576;DHT22;43412;-33.800;150.804;2022-08-05T06:25:03;21.80;77.10
57576;DHT22;43412;-33.800;150.804;2022-08-05T06:27:34;21.80;77.10
57576;DHT22;43412;-33.800;150.804;2022-08-05T06:30:06;21.70;77.90
57576;DHT22;43412;-33.800;150.804;2022-08-05T06:32:33;21.60;78.00
57576;DHT22;43412;-33.800;150.804;2022-08-05T06:35:01;21.50;78.20
57576;DHT22;43412;-33.800;150.804;2022-08-05T06:37:28;21.50;78.60
57576;DHT22;43412;-33.800;150.804;2022-08-05T06:39:56;21.30;78.30
57576;DHT22;43412;-33.800;150.804;2022-08-05T06:42:23;21.20;79.10
57576;DHT22;43412;-33.800;150.804;2022-08-05T06:44:50;21.10;78.80
57576;DHT22;43412;-33.800;150.804;2022-08-05T06:47:18;21.00;78.60
57576;DHT22;43412;-33.800;150.804;2022-08-05T06:49:46;20.90;78.00
57576;DHT22;43412;-33.800;150.804;2022-08-05T06:52:14;20.80;78.10
57576;DHT22;43412;-33.800;150.804;2022-08-05T06:54:41;20.70;78.50
57576;DHT22;43412;-33.800;150.804;2022-08-05T06:57:08;20.60;77.70
57576;DHT22;43412;-33.800;150.804;2022-08-05T06:59:40;20.60;77.00
57576;DHT22;43412;-33.800;150.804;2022-08-05T07:02:10;20.50;77.00
57576;DHT22;43412;-33.800;150.804;2022-08-05T07:04:38;20.50;77.20
57576;DHT22;43412;-33.800;150.804;2022-08-05T07:07:05;20.40;76.60
57576;DHT22;43412;-33.800;150.804;2022-08-05T07:09:33;20.30;77.30
57576;DHT22;43412;-33.800;150.804;2022-08-05T07:12:00;20.20;77.50
57576;DHT22;43412;-33.800;150.804;2022-08-05T07:14:27;20.10;77.50
57576;DHT22;43412;-33.800;150.804;2022-08-05T07:17:13;20.10;78.40
57576;DHT22;43412;-33.800;150.804;2022-08-05T07:19:40;19.90;77.40
57576;DHT22;43412;-33.800;150.804;2022-08-05T07:22:08;19.90;76.90
57576;DHT22;43412;-33.800;150.804;2022-08-05T07:24:35;19.80;76.90
57576;DHT22;43412;-33.800;150.804;2022-08-05T07:27:03;19.80;76.80
57576;DHT22;43412;-33.800;150.804;2022-08-05T07:29:30;19.70;77.20
57576;DHT22;43412;-33.800;150.804;2022-08-05T07:31:58;19.60;79.00
57576;DHT22;43412;-33.800;150.804;2022-08-05T07:34:25;19.50;77.90
57576;DHT22;43412;-33.800;150.804;2022-08-05T07:36:53;19.40;79.20
57576;DHT22;43412;-33.800;150.804;2022-08-05T07:39:20;19.30;78.60
57576;DHT22;43412;-33.800;150.804;2022-08-05T07:41:48;19.20;79.60
57576;DHT22;43412;-33.800;150.804;2022-08-05T07:44:15;19.00;80.00
57576;DHT22;43412;-33.800;150.804;2022-08-05T07:46:43;18.90;80.40
57576;DHT22;43412;-33.800;150.804;2022-08-05T07:49:11;18.80;80.40
57576;DHT22;43412;-33.800;150.804;2022-08-05T07:51:39;18.80;78.70
57576;DHT22;43412;-33.800;150.804;2022-08-05T07:54:07;18.70;79.60
57576;DHT22;43412;-33.800;150.804;2022-08-05T07:56:36;18.70;80.00
57576;DHT22;43412;-33.800;150.804;2022-08-05T07:59:04;18.70;80.80
57576;DHT22;43412;-33.800;150.804;2022-08-05T08:01:31;18.60;80.60
57576;DHT22;43412;-33.800;150.804;2022-08-05T08:03:58;18.60;79.10
57576;DHT22;43412;-33.800;150.804;2022-08-05T08:06:26;18.60;78.70
57576;DHT22;43412;-33.800;150.804;2022-08-05T08:08:53;18.70;78.40
57576;DHT22;43412;-33.800;150.804;2022-08-05T08:11:21;18.70;78.90
57576;DHT22;43412;-33.800;150.804;2022-08-05T08:13:48;18.70;79.10
57576;DHT22;43412;-33.800;150.804;2022-08-05T08:16:16;18.60;78.70
57576;DHT22;43412;-33.800;150.804;2022-08-05T08:18:44;18.60;78.80
57576;DHT22;43412;-33.800;150.804;2022-08-05T08:21:11;18.50;78.90
57576;DHT22;43412;-33.800;150.804;2022-08-05T08:23:39;18.40;79.40
57576;DHT22;43412;-33.800;150.804;2022-08-05T08:26:06;18.30;80.00
57576;DHT22;43412;-33.800;150.804;2022-08-05T08:28:33;18.20;80.40
57576;DHT22;43412;-33.800;150.804;2022-08-05T08:31:01;18.00;80.60
57576;DHT22;43412;-33.800;150.804;2022-08-05T08:33:29;17.90;80.90
57576;DHT22;43412;-33.800;150.804;2022-08-05T08:35:56;17.90;81.10
57576;DHT22;43412;-33.800;150.804;2022-08-05T08:38:23;17.90;81.10
57576;DHT22;43412;-33.800;150.804;2022-08-05T08:40:51;17.90;81.20
57576;DHT22;43412;-33.800;150.804;2022-08-05T08:43:19;17.90;81.20
57576;DHT22;43412;-33.800;150.804;2022-08-05T08:45:49;18.00;81.30
57576;DHT22;43412;-33.800;150.804;2022-08-05T08:48:19;18.00;81.40
57576;DHT22;43412;-33.800;150.804;2022-08-05T08:50:47;17.90;81.90
57576;DHT22;43412;-33.800;150.804;2022-08-05T08:53:16;17.80;82.50
57576;DHT22;43412;-33.800;150.804;2022-08-05T08:55:45;17.60;82.90
57576;DHT22;43412;-33.800;150.804;2022-08-05T08:58:14;17.50;83.40
57576;DHT22;43412;-33.800;150.804;2022-08-05T09:00:43;17.40;83.80
57576;DHT22;43412;-33.800;150.804;2022-08-05T09:03:11;17.30;84.30
57576;DHT22;43412;-33.800;150.804;2022-08-05T09:05:38;17.20;84.70
57576;DHT22;43412;-33.800;150.804;2022-08-05T09:08:06;17.10;85.00
57576;DHT22;43412;-33.800;150.804;2022-08-05T09:10:33;17.10;85.00
57576;DHT22;43412;-33.800;150.804;2022-08-05T09:13:01;17.10;85.00
57576;DHT22;43412;-33.800;150.804;2022-08-05T09:15:29;17.00;85.30
57576;DHT22;43412;-33.800;150.804;2022-08-05T09:17:56;17.00;86.10
57576;DHT22;43412;-33.800;150.804;2022-08-05T09:20:23;16.80;86.00
57576;DHT22;43412;-33.800;150.804;2022-08-05T09:23:14;16.60;86.30
57576;DHT22;43412;-33.800;150.804;2022-08-05T09:25:47;16.60;86.40
57576;DHT22;43412;-33.800;150.804;2022-08-05T09:28:18;16.60;86.20
57576;DHT22;43412;-33.800;150.804;2022-08-05T09:30:53;16.60;86.30
57576;DHT22;43412;-33.800;150.804;2022-08-05T09:33:22;16.50;86.70
57576;DHT22;43412;-33.800;150.804;2022-08-05T09:36:08;16.40;86.40
57576;DHT22;43412;-33.800;150.804;2022-08-05T09:38:36;16.40;86.70
57576;DHT22;43412;-33.800;150.804;2022-08-05T09:41:05;16.40;86.50
57576;DHT22;43412;-33.800;150.804;2022-08-05T09:43:35;16.40;86.10
57576;DHT22;43412;-33.800;150.804;2022-08-05T09:46:05;16.40;86.30
57576;DHT22;43412;-33.800;150.804;2022-08-05T09:48:37;16.30;86.20
57576;DHT22;43412;-33.800;150.804;2022-08-05T09:51:06;16.30;86.20
57576;DHT22;43412;-33.800;150.804;2022-08-05T09:53:51;16.30;86.50
57576;DHT22;43412;-33.800;150.804;2022-08-05T09:56:30;16.40;85.70
57576;DHT22;43412;-33.800;150.804;2022-08-05T09:59:07;16.40;85.80
57576;DHT22;43412;-33.800;150.804;2022-08-05T10:01:37;16.30;86.40
57576;DHT22;43412;-33.800;150.804;2022-08-05T10:04:12;16.10;87.10
57576;DHT22;43412;-33.800;150.804;2022-08-05T10:06:56;16.00;87.80
57576;DHT22;43412;-33.800;150.804;2022-08-05T10:09:23;15.70;88.70
57576;DHT22;43412;-33.800;150.804;2022-08-05T10:11:51;15.60;89.10
57576;DHT22;43412;-33.800;150.804;2022-08-05T10:14:27;15.40;90.00
57576;DHT22;43412;-33.800;150.804;2022-08-05T10:16:54;15.30;90.30
57576;DHT22;43412;-33.800;150.804;2022-08-05T10:19:25;15.20;90.40
57576;DHT22;43412;-33.800;150.804;2022-08-05T10:21:53;15.00;90.50
57576;DHT22;43412;-33.800;150.804;2022-08-05T10:24:21;14.80;90.90
57576;DHT22;43412;-33.800;150.804;2022-08-05T10:26:49;14.80;90.80
57576;DHT22;43412;-33.800;150.804;2022-08-05T10:29:21;14.70;91.10
57576;DHT22;43412;-33.800;150.804;2022-08-05T10:31:49;14.60;91.30
57576;DHT22;43412;-33.800;150.804;2022-08-05T10:34:16;14.50;91.10
57576;DHT22;43412;-33.800;150.804;2022-08-05T10:36:44;14.50;91.50
57576;DHT22;43412;-33.800;150.804;2022-08-05T10:39:23;14.40;91.70
57576;DHT22;43412;-33.800;150.804;2022-08-05T10:44:31;14.30;91.70
57576;DHT22;43412;-33.800;150.804;2022-08-05T10:47:09;14.30;92.20
57576;DHT22;43412;-33.800;150.804;2022-08-05T10:50:04;14.20;92.00
57576;DHT22;43412;-33.800;150.804;2022-08-05T10:52:58;14.20;92.50
57576;DHT22;43412;-33.800;150.804;2022-08-05T10:55:27;14.10;92.40
57576;DHT22;43412;-33.800;150.804;2022-08-05T10:58:09;14.00;92.20
57576;DHT22;43412;-33.800;150.804;2022-08-05T11:00:37;14.00;92.60
57576;DHT22;43412;-33.800;150.804;2022-08-05T11:03:12;13.90;92.10
57576;DHT22;43412;-33.800;150.804;2022-08-05T11:05:40;13.80;92.60
57576;DHT22;43412;-33.800;150.804;2022-08-05T11:08:09;13.80;92.90
57576;DHT22;43412;-33.800;150.804;2022-08-05T11:10:37;13.70;93.00
57576;DHT22;43412;-33.800;150.804;2022-08-05T11:13:07;13.60;93.00
57576;DHT22;43412;-33.800;150.804;2022-08-05T11:15:36;13.60;92.90
57576;DHT22;43412;-33.800;150.804;2022-08-05T11:20:54;13.50;93.30
57576;DHT22;43412;-33.800;150.804;2022-08-05T11:23:51;13.60;93.00
57576;DHT22;43412;-33.800;150.804;2022-08-05T11:26:20;13.70;92.90
57576;DHT22;43412;-33.800;150.804;2022-08-05T11:28:52;14.00;92.50
57576;DHT22;43412;-33.800;150.804;2022-08-05T11:31:22;14.30;91.90
57576;DHT22;43412;-33.800;150.804;2022-08-05T11:33:56;14.60;91.60
57576;DHT22;43412;-33.800;150.804;2022-08-05T11:36:44;14.60;91.60
57576;DHT22;43412;-33.800;150.804;2022-08-05T11:39:18;14.70;91.70
57576;DHT22;43412;-33.800;150.804;2022-08-05T11:42:04;14.70;91.50
57576;DHT22;43412;-33.800;150.804;2022-08-05T11:44:37;14.80;91.90
57576;DHT22;43412;-33.800;150.804;2022-08-05T11:47:05;14.90;91.30
57576;DHT22;43412;-33.800;150.804;2022-08-05T11:49:33;14.80;91.60
57576;DHT22;43412;-33.800;150.804;2022-08-05T11:52:01;14.70;91.50
57576;DHT22;43412;-33.800;150.804;2022-08-05T11:54:30;14.60;91.70
57576;DHT22;43412;-33.800;150.804;2022-08-05T11:57:04;14.50;91.80
57576;DHT22;43412;-33.800;150.804;2022-08-05T11:59:32;14.40;91.90
57576;DHT22;43412;-33.800;150.804;2022-08-05T12:02:07;14.30;92.20
57576;DHT22;43412;-33.800;150.804;2022-08-05T12:04:42;14.30;92.00
57576;DHT22;43412;-33.800;150.804;2022-08-05T12:07:13;14.30;91.90
57576;DHT22;43412;-33.800;150.804;2022-08-05T12:09:46;14.30;92.10
57576;DHT22;43412;-33.800;150.804;2022-08-05T12:12:21;14.20;92.30
57576;DHT22;43412;-33.800;150.804;2022-08-05T12:14:49;14.10;92.30
57576;DHT22;43412;-33.800;150.804;2022-08-05T12:17:17;14.10;92.30
57576;DHT22;43412;-33.800;150.804;2022-08-05T12:19:53;14.20;92.10
57576;DHT22;43412;-33.800;150.804;2022-08-05T12:22:27;14.20;92.00
57576;DHT22;43412;-33.800;150.804;2022-08-05T12:24:56;14.40;91.50
57576;DHT22;43412;-33.800;150.804;2022-08-05T12:27:28;14.50;91.50
57576;DHT22;43412;-33.800;150.804;2022-08-05T12:29:59;14.50;91.50
57576;DHT22;43412;-33.800;150.804;2022-08-05T12:32:30;14.40;91.50
57576;DHT22;43412;-33.800;150.804;2022-08-05T12:34:58;14.60;90.80
57576;DHT22;43412;-33.800;150.804;2022-08-05T12:37:25;14.60;91.00
57576;DHT22;43412;-33.800;150.804;2022-08-05T12:39:53;14.70;91.00
57576;DHT22;43412;-33.800;150.804;2022-08-05T12:42:22;14.60;91.10
57576;DHT22;43412;-33.800;150.804;2022-08-05T12:44:49;14.50;91.40
57576;DHT22;43412;-33.800;150.804;2022-08-05T12:47:27;14.30;91.70
57576;DHT22;43412;-33.800;150.804;2022-08-05T12:49:55;14.20;91.80
57576;DHT22;43412;-33.800;150.804;2022-08-05T12:52:23;14.20;91.50
57576;DHT22;43412;-33.800;150.804;2022-08-05T12:54:50;14.20;91.40
57576;DHT22;43412;-33.800;150.804;2022-08-05T12:57:18;14.20;91.60
57576;DHT22;43412;-33.800;150.804;2022-08-05T12:59:51;14.40;90.60
57576;DHT22;43412;-33.800;150.804;2022-08-05T13:02:24;14.60;90.40
57576;DHT22;43412;-33.800;150.804;2022-08-05T13:04:53;14.70;90.20
57576;DHT22;43412;-33.800;150.804;2022-08-05T13:07:25;14.70;90.40
57576;DHT22;43412;-33.800;150.804;2022-08-05T13:09:55;14.70;90.40
57576;DHT22;43412;-33.800;150.804;2022-08-05T13:12:24;14.70;90.90
57576;DHT22;43412;-33.800;150.804;2022-08-05T13:14:59;14.60;91.00
57576;DHT22;43412;-33.800;150.804;2022-08-05T13:17:29;14.70;91.30
57576;DHT22;43412;-33.800;150.804;2022-08-05T13:20:09;14.70;91.20
57576;DHT22;43412;-33.800;150.804;2022-08-05T13:22:39;14.60;91.50
57576;DHT22;43412;-33.800;150.804;2022-08-05T13:25:13;14.40;91.90
57576;DHT22;43412;-33.800;150.804;2022-08-05T13:27:45;14.30;92.20
57576;DHT22;43412;-33.800;150.804;2022-08-05T13:30:15;14.00;92.60
57576;DHT22;43412;-33.800;150.804;2022-08-05T13:32:43;13.90;92.30
57576;DHT22;43412;-33.800;150.804;2022-08-05T13:35:15;13.90;92.60
57576;DHT22;43412;-33.800;150.804;2022-08-05T13:37:42;13.80;92.70
57576;DHT22;43412;-33.800;150.804;2022-08-05T13:40:10;13.80;92.90
57576;DHT22;43412;-33.800;150.804;2022-08-05T13:42:38;13.70;93.20
57576;DHT22;43412;-33.800;150.804;2022-08-05T13:45:06;13.80;93.10
57576;DHT22;43412;-33.800;150.804;2022-08-05T13:47:34;14.00;92.90
57576;DHT22;43412;-33.800;150.804;2022-08-05T13:50:04;14.00;92.90
57576;DHT22;43412;-33.800;150.804;2022-08-05T13:52:32;13.90;93.20
57576;DHT22;43412;-33.800;150.804;2022-08-05T13:55:00;13.80;93.50
57576;DHT22;43412;-33.800;150.804;2022-08-05T13:57:27;13.70;93.90
57576;DHT22;43412;-33.800;150.804;2022-08-05T13:59:55;13.70;93.50
57576;DHT22;43412;-33.800;150.804;2022-08-05T14:02:22;13.80;93.60
57576;DHT22;43412;-33.800;150.804;2022-08-05T14:04:49;13.80;93.90
57576;DHT22;43412;-33.800;150.804;2022-08-05T14:07:39;13.80;93.40
57576;DHT22;43412;-33.800;150.804;2022-08-05T14:10:12;13.90;93.20
57576;DHT22;43412;-33.800;150.804;2022-08-05T14:12:40;14.00;93.40
57576;DHT22;43412;-33.800;150.804;2022-08-05T14:15:08;14.00;93.30
57576;DHT22;43412;-33.800;150.804;2022-08-05T14:17:36;14.10;93.20
57576;DHT22;43412;-33.800;150.804;2022-08-05T14:20:05;14.30;92.90
57576;DHT22;43412;-33.800;150.804;2022-08-05T14:22:33;14.40;92.90
57576;DHT22;43412;-33.800;150.804;2022-08-05T14:25:02;14.40;92.80
57576;DHT22;43412;-33.800;150.804;2022-08-05T14:27:30;14.30;93.20
57576;DHT22;43412;-33.800;150.804;2022-08-05T14:29:57;14.10;93.50
57576;DHT22;43412;-33.800;150.804;2022-08-05T14:32:24;13.90;93.80
57576;DHT22;43412;-33.800;150.804;2022-08-05T14:34:52;13.70;94.10
57576;DHT22;43412;-33.800;150.804;2022-08-05T14:37:19;13.50;94.40
57576;DHT22;43412;-33.800;150.804;2022-08-05T14:39:47;13.40;94.60
57576;DHT22;43412;-33.800;150.804;2022-08-05T14:42:14;13.40;95.00
57576;DHT22;43412;-33.800;150.804;2022-08-05T14:44:42;13.40;95.20
57576;DHT22;43412;-33.800;150.804;2022-08-05T14:47:11;13.40;95.30
57576;DHT22;43412;-33.800;150.804;2022-08-05T14:49:38;13.30;95.40
57576;DHT22;43412;-33.800;150.804;2022-08-05T14:52:06;13.20;95.50
57576;DHT22;43412;-33.800;150.804;2022-08-05T14:54:33;13.00;95.70
57576;DHT22;43412;-33.800;150.804;2022-08-05T14:57:01;12.90;96.10
57576;DHT22;43412;-33.800;150.804;2022-08-05T14:59:28;12.80;96.20
57576;DHT22;43412;-33.800;150.804;2022-08-05T15:01:56;12.70;96.40
57576;DHT22;43412;-33.800;150.804;2022-08-05T15:04:24;12.70;96.40
57576;DHT22;43412;-33.800;150.804;2022-08-05T15:06:51;12.80;96.10
57576;DHT22;43412;-33.800;150.804;2022-08-05T15:09:19;12.90;96.00
57576;DHT22;43412;-33.800;150.804;2022-08-05T15:11:47;13.10;95.50
57576;DHT22;43412;-33.800;150.804;2022-08-05T15:14:15;13.20;95.30
57576;DHT22;43412;-33.800;150.804;2022-08-05T15:16:42;13.40;94.90